Time;durP1;ratioP1;P1;durP2;ratioP2;P2;SDS_P1;SDS_P2;PMS_P1;PMS_P2;Temp;Humidity;BMP_temperature;BMP_pressure;BME280_temperature;BME280_humidity;BME280_pressure;Samples;Min_cycle;Max_cycle;Signal;HPM_P1;HPM_P2
2022/11/24 00:01:48;;;;;;;18.45;8.88;;;7.20;99.90;;;;;;5123643;27;20095;-76
2022/11/24 00:04:14;;;;;;;25.23;9.10;;;7.20;99.90;;;;;;5107579;27;20049;-76
2022/11/24 00:06:40;;;;;;;23.38;9.48;;;7.20;99.90;;;;;;5123746;27;20050;-75
2022/11/24 00:09:06;;;;;;;19.05;9.60;;;7.20;99.90;;;;;;5139932;27;20035;-74
2022/11/24 00:11:34;;;;;;;19.15;8.30;;;7.20;99.90;;;;;;5124486;27;20043;-73
2022/11/24 00:14:01;;;;;;;18.65;8.75;;;7.10;99.90;;;;;;5140341;27;20039;-71
2022/11/24 00:16:32;;;;;;;17.05;8.60;;;7.10;99.90;;;;;;5142576;27;20118;-75
2022/11/24 00:19:01;;;;;;;19.05;8.57;;;7.10;99.90;;;;;;5105215;27;20072;-75
2022/11/24 00:21:29;;;;;;;24.23;8.80;;;7.00;99.90;;;;;;5126202;27;20446;-76
2022/11/24 00:23:55;;;;;;;25.48;8.55;;;7.00;99.90;;;;;;5140993;27;20498;-75
2022/11/24 00:26:24;;;;;;;16.90;8.35;;;7.40;99.90;;;;;;5142584;27;20356;-75
2022/11/24 00:28:52;;;;;;;19.15;9.13;;;7.00;99.90;;;;;;5122772;27;20058;-75
2022/11/24 00:31:23;;;;;;;17.33;8.75;;;7.40;99.90;;;;;;5120113;28;20083;-76
2022/11/24 00:33:51;;;;;;;20.92;8.35;;;7.00;99.90;;;;;;5144929;27;20050;-74
2022/11/24 00:36:18;;;;;;;19.95;7.53;;;7.00;99.90;;;;;;5102556;27;20043;-75
2022/11/24 00:38:44;;;;;;;19.63;7.50;;;7.00;99.90;;;;;;5110397;27;20096;-72
2022/11/24 00:41:10;;;;;;;19.77;7.63;;;7.40;99.90;;;;;;5119073;27;20533;-74
2022/11/24 00:43:35;;;;;;;19.02;7.68;;;7.00;99.90;;;;;;5128047;27;20046;-74
2022/11/24 00:46:01;;;;;;;17.52;7.68;;;7.00;99.90;;;;;;5121006;27;20390;-74
2022/11/24 00:48:27;;;;;;;20.77;8.23;;;7.00;99.90;;;;;;5102270;28;20047;-74
2022/11/24 00:51:01;;;;;;;17.70;7.07;;;7.30;99.90;;;;;;5124799;27;20083;-75
2022/11/24 00:53:27;;;;;;;20.08;7.07;;;7.00;99.90;;;;;;5123547;27;20043;-73
2022/11/24 00:55:54;;;;;;;21.88;7.63;;;7.00;99.90;;;;;;5122721;27;20587;-73
2022/11/24 00:58:20;;;;;;;15.93;6.25;;;8.00;99.90;;;;;;5141784;27;20066;-74
2022/11/24 01:00:46;;;;;;;23.17;7.93;;;6.90;99.90;;;;;;5104739;27;20383;-75
2022/11/24 01:03:13;;;;;;;24.95;7.28;;;6.90;99.90;;;;;;5140076;27;20045;-75
2022/11/24 01:05:39;;;;;;;14.00;6.10;;;6.90;99.90;;;;;;5146024;27;20371;-74
2022/11/24 01:08:05;;;;;;;25.42;6.65;;;6.90;99.90;;;;;;5143933;27;20083;-73
2022/11/24 01:10:32;;;;;;;19.67;6.55;;;6.80;99.90;;;;;;5127309;27;20092;-72
2022/11/24 01:12:58;;;;;;;24.85;6.70;;;6.90;99.90;;;;;;5148362;27;20128;-74
2022/11/24 01:15:24;;;;;;;15.35;5.63;;;6.90;99.90;;;;;;5145081;27;20038;-72
2022/11/24 01:17:50;;;;;;;22.17;6.72;;;6.90;99.90;;;;;;5107773;27;20054;-74
2022/11/24 01:20:16;;;;;;;16.70;6.05;;;6.90;99.90;;;;;;5145591;27;20031;-75
2022/11/24 01:22:42;;;;;;;23.20;5.78;;;6.80;99.90;;;;;;5108934;27;20077;-73
2022/11/24 01:25:09;;;;;;;25.13;6.78;;;6.80;99.90;;;;;;5144116;27;20066;-74
2022/11/24 01:27:35;;;;;;;25.17;5.53;;;6.80;99.90;;;;;;5128210;27;20092;-71
2022/11/24 01:30:01;;;;;;;22.10;5.68;;;6.80;99.90;;;;;;5124665;27;20424;-72
2022/11/24 01:32:27;;;;;;;24.25;6.40;;;6.80;99.90;;;;;;5101907;27;20039;-70
2022/11/24 01:34:52;;;;;;;26.52;5.25;;;6.70;99.90;;;;;;5126498;27;20047;-72
2022/11/24 01:37:18;;;;;;;24.67;6.10;;;6.80;99.90;;;;;;5124810;27;20095;-72
2022/11/24 01:39:44;;;;;;;28.67;6.55;;;6.80;99.90;;;;;;5144960;27;20131;-73
2022/11/24 01:42:09;;;;;;;31.08;6.80;;;7.10;99.90;;;;;;5125337;27;20121;-74
2022/11/24 01:44:35;;;;;;;21.17;6.03;;;6.80;99.90;;;;;;5126277;27;20066;-74
2022/11/24 01:47:34;;;;;;;25.67;6.30;;;6.80;99.90;;;;;;5125584;27;20038;-74
2022/11/24 01:50:01;;;;;;;27.27;6.15;;;6.90;99.90;;;;;;5143745;27;20046;-74
2022/11/24 01:52:31;;;;;;;26.17;5.40;;;6.90;99.90;;;;;;5122656;27;20134;-74
2022/11/24 01:55:08;;;;;;;27.52;5.57;;;6.90;99.90;;;;;;5147995;27;20054;-73
2022/11/24 01:57:49;;;;;;;30.48;5.82;;;6.80;99.90;;;;;;5140514;27;20051;-74
2022/11/24 02:00:15;;;;;;;29.00;5.45;;;6.90;99.90;;;;;;5141567;27;20032;-74
2022/11/24 02:02:43;;;;;;;28.00;5.35;;;6.80;99.90;;;;;;5141646;27;20084;-74
2022/11/24 02:05:20;;;;;;;27.83;5.35;;;6.90;99.90;;;;;;5129388;27;20047;-76
2022/11/24 02:07:47;;;;;;;23.88;6.57;;;7.20;99.90;;;;;;5122433;27;20073;-76
2022/11/24 02:10:14;;;;;;;24.45;7.15;;;6.90;99.90;;;;;;5125792;27;20478;-71
2022/11/24 02:12:46;;;;;;;25.73;6.82;;;6.90;99.90;;;;;;5142982;27;20035;-73
2022/11/24 02:15:16;;;;;;;21.27;5.63;;;6.90;99.90;;;;;;5124870;27;20043;-71
2022/11/24 02:17:42;;;;;;;23.00;4.82;;;6.80;99.90;;;;;;5144182;27;20517;-71
2022/11/24 02:20:10;;;;;;;28.20;5.25;;;6.90;99.90;;;;;;5142532;27;20039;-75
2022/11/24 02:22:56;;;;;;;28.90;5.68;;;6.90;99.90;;;;;;5126783;27;20447;-75
2022/11/24 02:25:41;;;;;;;17.55;3.80;;;6.90;99.90;;;;;;5138155;27;20550;-75
2022/11/24 02:28:11;;;;;;;22.38;4.32;;;6.80;99.90;;;;;;5142372;27;20477;-76
2022/11/24 02:30:37;;;;;;;24.73;5.65;;;6.80;99.90;;;;;;5125949;27;20053;-75
2022/11/24 02:33:03;;;;;;;22.05;4.65;;;6.80;99.90;;;;;;5124581;27;20047;-75
2022/11/24 02:35:30;;;;;;;23.90;4.13;;;6.90;99.90;;;;;;5125999;27;20333;-75
2022/11/24 02:37:56;;;;;;;24.00;5.63;;;6.80;99.90;;;;;;5123050;27;20121;-73
2022/11/24 02:40:25;;;;;;;25.35;4.65;;;6.80;99.90;;;;;;5125104;27;20125;-75
2022/11/24 02:42:55;;;;;;;17.08;4.50;;;6.80;99.90;;;;;;5107337;27;20043;-75
2022/11/24 02:45:21;;;;;;;25.10;4.90;;;6.80;99.90;;;;;;5140885;27;20042;-74
2022/11/24 02:47:47;;;;;;;18.10;3.85;;;6.80;99.90;;;;;;5143029;27;20043;-74
2022/11/24 02:50:13;;;;;;;18.13;3.78;;;6.80;99.90;;;;;;5143795;27;20038;-75
2022/11/24 02:52:39;;;;;;;17.55;3.85;;;6.70;99.90;;;;;;5144234;27;20082;-75
2022/11/24 02:55:04;;;;;;;26.50;5.45;;;6.40;99.90;;;;;;5122021;27;20367;-76
2022/11/24 02:57:30;;;;;;;23.90;4.68;;;6.70;99.90;;;;;;5125087;27;20042;-76
2022/11/24 02:59:56;;;;;;;24.77;4.63;;;6.70;99.90;;;;;;5142633;27;20042;-75
2022/11/24 03:02:22;;;;;;;24.52;5.18;;;6.70;99.90;;;;;;5143371;27;20039;-75
2022/11/24 03:04:47;;;;;;;23.42;4.57;;;6.70;99.90;;;;;;5143675;27;20490;-74
2022/11/24 03:07:13;;;;;;;24.33;4.35;;;6.70;99.90;;;;;;5142830;27;20103;-73
2022/11/24 03:09:39;;;;;;;21.20;3.83;;;6.70;99.90;;;;;;5124815;27;20409;-73
2022/11/24 03:12:05;;;;;;;25.05;4.03;;;6.70;99.90;;;;;;5122620;27;20046;-73
2022/11/24 03:14:31;;;;;;;23.83;3.97;;;6.70;99.90;;;;;;5124740;27;20046;-73
2022/11/24 03:16:57;;;;;;;23.65;5.28;;;6.70;99.90;;;;;;5141281;27;20386;-74
2022/11/24 03:19:22;;;;;;;24.58;4.45;;;6.80;99.90;;;;;;5139653;27;20087;-75
2022/11/24 03:21:48;;;;;;;20.95;5.38;;;6.80;99.90;;;;;;5144809;27;20076;-74
2022/11/24 03:24:14;;;;;;;22.70;4.43;;;6.80;99.90;;;;;;5139598;27;20047;-74
2022/11/24 03:26:40;;;;;;;23.92;5.28;;;6.90;99.90;;;;;;5145087;27;20041;-75
2022/11/24 03:29:07;;;;;;;33.15;5.40;;;6.80;99.90;;;;;;5140139;27;20435;-71
2022/11/24 03:31:33;;;;;;;23.33;4.80;;;7.20;99.90;;;;;;5109173;27;20047;-74
2022/11/24 03:33:58;;;;;;;24.05;4.50;;;6.90;99.90;;;;;;5123668;27;20038;-71
2022/11/24 03:36:24;;;;;;;30.10;4.45;;;6.90;99.90;;;;;;5124190;27;20046;-72
2022/11/24 03:38:50;;;;;;;21.33;4.18;;;6.90;99.90;;;;;;5142660;27;20126;-73
2022/11/24 03:41:15;;;;;;;23.88;4.40;;;7.00;99.90;;;;;;5142769;27;20038;-74
2022/11/24 03:43:41;;;;;;;19.77;4.35;;;7.00;99.90;;;;;;5142221;27;20030;-71
2022/11/24 03:46:07;;;;;;;21.50;4.32;;;7.10;99.90;;;;;;5104931;27;20047;-75
2022/11/24 03:48:33;;;;;;;20.13;3.70;;;7.00;99.90;;;;;;5124294;27;20592;-74
2022/11/24 03:51:01;;;;;;;20.70;3.80;;;7.60;99.90;;;;;;5141175;27;20035;-75
2022/11/24 03:53:29;;;;;;;22.02;4.63;;;7.00;99.90;;;;;;5107370;27;20042;-75
2022/11/24 03:55:55;;;;;;;21.83;4.18;;;7.00;99.90;;;;;;5123388;27;20031;-73
2022/11/24 03:58:21;;;;;;;21.02;3.63;;;7.00;99.90;;;;;;5136698;27;20285;-73
2022/11/24 04:00:51;;;;;;;23.17;4.25;;;7.20;99.90;;;;;;5145521;27;20043;-71
2022/11/24 04:03:18;;;;;;;19.08;4.07;;;7.00;99.90;;;;;;5139348;27;20496;-72
2022/11/24 04:05:44;;;;;;;23.08;3.60;;;7.00;99.90;;;;;;5123863;27;20121;-71
2022/11/24 04:08:10;;;;;;;19.63;4.30;;;7.00;99.90;;;;;;5121952;27;20035;-74
2022/11/24 04:10:37;;;;;;;21.83;3.53;;;7.00;99.90;;;;;;5107969;27;20134;-74
2022/11/24 04:13:08;;;;;;;23.65;4.18;;;7.00;99.90;;;;;;5122176;27;20046;-74
2022/11/24 04:15:36;;;;;;;16.23;3.05;;;7.00;99.90;;;;;;5117159;27;20047;-71
2022/11/24 04:18:02;;;;;;;25.02;3.78;;;7.00;99.90;;;;;;5140524;27;20087;-74
2022/11/24 04:20:27;;;;;;;19.58;4.30;;;6.90;99.90;;;;;;5120673;28;20036;-72
2022/11/24 04:22:53;;;;;;;19.20;3.88;;;8.00;99.90;;;;;;5120323;28;20070;-74
2022/11/24 04:25:18;;;;;;;17.95;3.72;;;6.90;99.90;;;;;;5140854;27;20078;-74
2022/11/24 04:27:44;;;;;;;20.13;3.67;;;6.90;99.90;;;;;;5141696;27;20050;-73
2022/11/24 04:30:10;;;;;;;16.33;3.35;;;6.90;99.90;;;;;;5140396;27;20055;-73
2022/11/24 04:32:36;;;;;;;21.50;3.60;;;6.90;99.90;;;;;;5142174;27;20047;-72
2022/11/24 04:35:02;;;;;;;25.55;3.58;;;6.90;99.90;;;;;;5106135;27;20040;-73
2022/11/24 04:37:28;;;;;;;20.80;3.45;;;6.80;99.90;;;;;;5125801;27;20175;-72
2022/11/24 04:39:54;;;;;;;26.40;4.55;;;6.80;99.90;;;;;;5143993;27;20123;-74
2022/11/24 04:42:20;;;;;;;21.25;3.75;;;6.80;99.90;;;;;;5127928;27;20069;-72
2022/11/24 04:44:46;;;;;;;20.92;4.10;;;6.80;99.90;;;;;;5127869;27;20542;-74
2022/11/24 04:47:18;;;;;;;20.75;3.55;;;6.70;99.90;;;;;;5125362;27;20123;-75
2022/11/24 04:49:46;;;;;;;11.77;3.00;;;6.80;99.90;;;;;;5112232;27;20042;-71
2022/11/24 04:52:11;;;;;;;17.73;3.30;;;6.80;99.90;;;;;;5126135;27;20086;-75
2022/11/24 04:54:37;;;;;;;21.92;3.90;;;6.70;99.90;;;;;;5104936;27;20478;-75
2022/11/24 04:57:02;;;;;;;20.55;3.88;;;6.70;99.90;;;;;;5124023;27;20039;-75
2022/11/24 04:59:28;;;;;;;21.10;3.85;;;6.70;99.90;;;;;;5110735;27;20133;-74
2022/11/24 05:01:54;;;;;;;25.98;4.03;;;6.70;99.90;;;;;;5126497;27;20023;-74
2022/11/24 05:04:20;;;;;;;20.38;4.22;;;6.70;99.90;;;;;;5145528;27;20503;-76
2022/11/24 05:06:46;;;;;;;19.35;3.33;;;6.60;99.90;;;;;;5147309;27;20119;-74
2022/11/24 05:09:16;;;;;;;17.17;3.40;;;6.70;99.90;;;;;;5143631;27;20155;-75
2022/11/24 05:11:42;;;;;;;18.17;3.78;;;6.70;99.90;;;;;;5146182;27;20054;-75
2022/11/24 05:14:08;;;;;;;16.17;2.80;;;6.70;99.90;;;;;;5124480;27;20042;-74
2022/11/24 05:16:34;;;;;;;22.88;3.80;;;6.70;99.90;;;;;;5145433;27;20042;-74
2022/11/24 05:19:00;;;;;;;18.08;3.22;;;6.60;99.90;;;;;;5144489;27;20069;-75
2022/11/24 05:21:27;;;;;;;17.60;4.13;;;6.60;99.90;;;;;;5145205;27;20536;-75
2022/11/24 05:23:52;;;;;;;19.48;3.38;;;6.60;99.90;;;;;;5145598;27;20081;-74
2022/11/24 05:26:18;;;;;;;26.63;3.53;;;7.90;99.90;;;;;;5124848;27;20081;-75
2022/11/24 05:28:44;;;;;;;20.52;3.92;;;6.60;99.90;;;;;;5125987;27;20379;-74
2022/11/24 05:31:09;;;;;;;18.38;3.25;;;6.60;99.90;;;;;;5102264;27;20039;-73
2022/11/24 05:33:35;;;;;;;18.80;3.53;;;6.60;99.90;;;;;;5127226;27;20043;-74
2022/11/24 05:36:04;;;;;;;17.88;3.10;;;6.70;99.90;;;;;;5125526;27;20078;-75
2022/11/24 05:38:30;;;;;;;16.67;3.72;;;6.60;99.90;;;;;;5126779;27;20429;-74
2022/11/24 05:41:01;;;;;;;21.83;3.53;;;6.50;99.90;;;;;;5145012;27;20496;-73
2022/11/24 05:43:27;;;;;;;20.13;3.50;;;6.50;99.90;;;;;;5142829;27;20460;-74
2022/11/24 05:45:52;;;;;;;18.05;3.33;;;6.50;99.90;;;;;;5125860;27;20042;-73
2022/11/24 05:48:18;;;;;;;21.38;5.07;;;6.50;99.90;;;;;;5125067;27;20046;-74
2022/11/24 05:50:43;;;;;;;19.60;3.85;;;7.20;99.90;;;;;;5125789;27;20486;-71
2022/11/24 05:53:12;;;;;;;23.40;3.97;;;7.90;99.90;;;;;;5125838;27;20034;-75
2022/11/24 05:55:40;;;;;;;20.63;3.33;;;6.80;99.90;;;;;;5126782;27;20042;-75
2022/11/24 05:58:07;;;;;;;16.98;2.90;;;6.40;99.90;;;;;;5124092;27;20038;-74
2022/11/24 06:00:34;;;;;;;19.42;2.95;;;6.40;99.90;;;;;;5143981;27;20711;-74
2022/11/24 06:03:01;;;;;;;15.32;2.97;;;6.40;99.90;;;;;;5113927;27;20095;-73
2022/11/24 06:05:27;;;;;;;12.32;2.95;;;6.40;99.90;;;;;;5124842;27;20117;-71
2022/11/24 06:07:53;;;;;;;16.00;2.88;;;6.40;99.90;;;;;;5144604;27;20146;-74
2022/11/24 06:10:21;;;;;;;21.80;3.78;;;7.20;99.90;;;;;;5125782;27;20039;-74
2022/11/24 06:12:46;;;;;;;18.33;3.35;;;6.40;99.90;;;;;;5149642;27;20039;-72
2022/11/24 06:15:12;;;;;;;14.60;2.65;;;6.40;99.90;;;;;;5124176;27;20045;-73
2022/11/24 06:17:38;;;;;;;20.55;3.10;;;6.40;99.90;;;;;;5125048;27;20049;-73
2022/11/24 06:20:06;;;;;;;22.35;3.65;;;6.50;99.90;;;;;;5143749;27;20046;-73
2022/11/24 06:22:31;;;;;;;11.77;3.10;;;6.40;99.90;;;;;;5122268;27;20070;-75
2022/11/24 06:24:57;;;;;;;13.95;2.90;;;6.30;99.90;;;;;;5121845;27;20086;-75
2022/11/24 06:27:23;;;;;;;16.80;2.60;;;6.30;99.90;;;;;;5146544;27;20095;-75
2022/11/24 06:29:49;;;;;;;16.13;2.75;;;7.20;99.90;;;;;;5122006;27;20039;-75
2022/11/24 06:32:15;;;;;;;15.68;3.05;;;6.30;99.90;;;;;;5128882;27;20213;-74
2022/11/24 06:34:40;;;;;;;22.92;3.53;;;6.30;99.90;;;;;;5140743;27;20037;-75
2022/11/24 06:37:06;;;;;;;14.80;2.50;;;6.30;99.90;;;;;;5147942;27;20046;-75
2022/11/24 06:39:31;;;;;;;18.75;2.80;;;6.20;99.90;;;;;;5121446;27;20046;-75
2022/11/24 06:41:57;;;;;;;17.92;2.88;;;6.20;99.90;;;;;;5140365;27;20077;-74
2022/11/24 06:44:23;;;;;;;14.05;3.08;;;6.20;99.90;;;;;;5128228;27;20071;-71
2022/11/24 06:46:49;;;;;;;10.65;2.67;;;6.20;99.90;;;;;;5139639;27;20483;-74
2022/11/24 06:49:14;;;;;;;9.57;2.85;;;6.20;99.90;;;;;;5147415;27;20484;-76
2022/11/24 06:51:40;;;;;;;14.57;2.60;;;6.20;99.90;;;;;;5122487;27;20039;-75
2022/11/24 06:54:07;;;;;;;16.83;2.83;;;6.10;99.90;;;;;;5146993;27;20466;-75
2022/11/24 06:56:33;;;;;;;17.35;3.30;;;6.20;99.90;;;;;;5140217;27;20418;-75
2022/11/24 06:59:00;;;;;;;16.45;3.35;;;6.20;99.90;;;;;;5104401;27;20058;-74
2022/11/24 07:01:27;;;;;;;22.60;3.65;;;7.70;99.90;;;;;;5109928;27;20092;-74
2022/11/24 07:03:55;;;;;;;22.38;3.67;;;5.70;99.90;;;;;;5139755;27;20406;-74
2022/11/24 07:06:22;;;;;;;14.27;3.47;;;6.20;99.90;;;;;;5128441;27;20038;-76
2022/11/24 07:08:48;;;;;;;12.75;3.10;;;6.20;99.90;;;;;;5120674;27;20141;-76
2022/11/24 07:11:17;;;;;;;18.50;3.10;;;6.20;99.90;;;;;;5129487;27;20042;-74
2022/11/24 07:13:44;;;;;;;16.95;2.83;;;7.40;99.90;;;;;;5104772;27;20092;-75
2022/11/24 07:16:15;;;;;;;17.30;3.88;;;6.20;99.90;;;;;;5140111;27;20047;-75
2022/11/24 07:18:42;;;;;;;23.02;3.80;;;6.20;99.90;;;;;;5126154;27;20043;-77
2022/11/24 07:21:08;;;;;;;17.58;3.80;;;6.30;99.90;;;;;;5120931;27;20144;-75
2022/11/24 07:23:33;;;;;;;16.15;4.07;;;6.30;99.90;;;;;;5143501;27;20060;-76
2022/11/24 07:26:02;;;;;;;16.52;5.03;;;6.30;99.90;;;;;;5143506;27;20039;-76
2022/11/24 07:28:28;;;;;;;20.98;3.85;;;6.30;99.90;;;;;;5142698;27;20046;-76
2022/11/24 07:30:54;;;;;;;19.55;3.55;;;6.30;99.90;;;;;;5124226;27;20118;-73
2022/11/24 07:33:23;;;;;;;17.30;4.72;;;7.60;99.90;;;;;;5123506;27;20534;-74
2022/11/24 07:35:52;;;;;;;33.47;7.68;;;6.30;99.90;;;;;;5123620;27;20045;-73
2022/11/24 07:38:18;;;;;;;18.30;6.28;;;6.30;99.90;;;;;;5105950;27;20512;-75
2022/11/24 07:40:44;;;;;;;24.35;4.13;;;6.30;99.90;;;;;;5143090;27;20049;-72
2022/11/24 07:43:10;;;;;;;15.93;3.35;;;7.00;99.90;;;;;;5141999;27;20035;-74
2022/11/24 07:45:36;;;;;;;17.27;3.70;;;6.30;99.90;;;;;;5107068;27;20039;-74
2022/11/24 07:48:01;;;;;;;20.42;4.53;;;6.20;99.90;;;;;;5122848;27;20087;-74
2022/11/24 07:50:27;;;;;;;17.67;3.78;;;6.30;99.90;;;;;;5124029;27;20069;-76
2022/11/24 07:52:52;;;;;;;20.60;4.65;;;5.10;99.90;;;;;;5143023;27;20061;-74
2022/11/24 07:55:18;;;;;;;22.67;3.47;;;6.30;99.90;;;;;;5141209;27;20387;-74
2022/11/24 07:57:44;;;;;;;15.88;3.58;;;6.20;99.90;;;;;;5129862;27;20121;-75
2022/11/24 08:00:10;;;;;;;16.27;3.33;;;7.70;99.90;;;;;;5119839;27;20027;-75
2022/11/24 08:02:35;;;;;;;15.38;3.80;;;6.30;99.90;;;;;;5128931;27;20425;-74
2022/11/24 08:05:01;;;;;;;16.05;3.53;;;6.30;99.90;;;;;;5113559;27;20121;-74
2022/11/24 08:07:27;;;;;;;15.05;4.00;;;6.20;99.90;;;;;;5113917;27;20379;-70
2022/11/24 08:09:53;;;;;;;17.17;3.90;;;6.20;99.90;;;;;;5131988;27;20074;-72
2022/11/24 08:12:20;;;;;;;18.90;6.07;;;6.20;99.90;;;;;;5130957;27;20062;-75
2022/11/24 08:14:48;;;;;;;21.75;7.80;;;6.30;99.90;;;;;;5132019;27;20054;-70
2022/11/24 08:17:14;;;;;;;19.77;5.25;;;6.30;99.90;;;;;;5130051;27;20081;-70
2022/11/24 08:19:39;;;;;;;15.10;3.97;;;6.20;99.90;;;;;;5149346;27;20062;-76
2022/11/24 08:22:05;;;;;;;13.82;3.88;;;6.20;99.90;;;;;;5108608;27;20047;-74
2022/11/24 08:24:30;;;;;;;24.00;5.20;;;6.30;99.90;;;;;;5125180;27;20394;-75
2022/11/24 08:26:56;;;;;;;12.52;4.18;;;6.30;99.90;;;;;;5122559;27;20046;-71
2022/11/24 08:29:22;;;;;;;18.70;4.40;;;6.40;99.90;;;;;;5107336;27;20050;-71
2022/11/24 08:31:47;;;;;;;17.73;3.80;;;6.30;99.90;;;;;;5141293;27;20039;-74
2022/11/24 08:34:13;;;;;;;14.80;4.15;;;6.30;99.90;;;;;;5144347;27;20050;-74
2022/11/24 08:36:39;;;;;;;16.23;4.35;;;7.30;99.90;;;;;;5142092;27;20061;-71
2022/11/24 08:39:04;;;;;;;20.70;4.85;;;6.40;99.90;;;;;;5110246;27;20054;-70
2022/11/24 08:41:30;;;;;;;11.95;4.20;;;6.40;99.90;;;;;;5124430;27;20039;-71
2022/11/24 08:43:56;;;;;;;16.88;4.60;;;6.40;99.90;;;;;;5129773;27;20102;-70
2022/11/24 08:46:22;;;;;;;19.60;4.65;;;7.80;99.90;;;;;;5122892;27;20118;-71
2022/11/24 08:48:49;;;;;;;19.33;5.35;;;6.60;99.90;;;;;;5147312;27;20053;-71
2022/11/24 08:51:19;;;;;;;24.08;8.95;;;6.70;99.90;;;;;;5105287;27;20062;-70
2022/11/24 08:53:44;;;;;;;18.10;4.47;;;6.70;99.90;;;;;;5146204;27;20091;-71
2022/11/24 08:56:11;;;;;;;17.58;4.43;;;6.80;99.90;;;;;;5122033;27;20031;-71
2022/11/24 08:58:37;;;;;;;18.65;3.88;;;6.80;99.90;;;;;;5126051;27;20050;-72
2022/11/24 09:01:12;;;;;;;19.95;5.32;;;6.80;99.90;;;;;;5145051;27;20300;-71
2022/11/24 09:03:38;;;;;;;15.65;4.18;;;7.70;99.90;;;;;;5144237;27;20035;-71
2022/11/24 09:06:05;;;;;;;12.32;4.15;;;6.90;99.90;;;;;;5141087;27;20570;-70
2022/11/24 09:08:32;;;;;;;15.45;3.60;;;7.00;99.90;;;;;;5143156;27;20576;-72
2022/11/24 09:11:12;;;;;;;18.50;4.35;;;7.00;99.90;;;;;;5113572;27;20046;-71
2022/11/24 09:13:39;;;;;;;15.70;4.22;;;7.00;99.90;;;;;;5140220;27;20035;-71
2022/11/24 09:16:10;;;;;;;10.82;3.40;;;7.00;99.90;;;;;;5126368;27;20057;-71
2022/11/24 09:18:36;;;;;;;12.75;3.95;;;7.00;99.90;;;;;;5122436;27;20055;-71
2022/11/24 09:21:07;;;;;;;8.38;3.58;;;7.10;99.90;;;;;;5123041;27;20486;-71
2022/11/24 09:23:33;;;;;;;15.85;6.05;;;7.10;99.90;;;;;;5143641;27;20555;-71
2022/11/24 09:26:22;;;;;;;16.70;3.97;;;7.10;99.90;;;;;;5146357;27;20123;-71
2022/11/24 09:28:53;;;;;;;16.48;2.95;;;7.30;99.90;;;;;;5148155;27;20047;-71
2022/11/24 09:31:20;;;;;;;6.30;2.55;;;7.20;99.90;;;;;;5127384;27;20043;-72
2022/11/24 09:33:45;;;;;;;9.98;3.00;;;7.30;99.90;;;;;;5130013;27;20039;-71
2022/11/24 09:36:12;;;;;;;6.25;2.70;;;7.40;99.90;;;;;;5125470;27;20527;-75
2022/11/24 09:38:37;;;;;;;9.68;3.40;;;7.50;99.90;;;;;;5131142;27;20058;-74
2022/11/24 09:41:18;;;;;;;9.93;2.47;;;7.50;99.90;;;;;;5128063;27;20039;-72
2022/11/24 09:44:01;;;;;;;10.18;2.58;;;8.30;99.90;;;;;;5108316;27;20537;-72
2022/11/24 09:46:42;;;;;;;11.80;3.10;;;7.60;99.90;;;;;;5126269;27;20513;-72
2022/11/24 09:49:17;;;;;;;13.75;2.67;;;8.70;99.90;;;;;;5131858;27;20042;-76
2022/11/24 09:51:46;;;;;;;8.88;2.65;;;7.60;99.90;;;;;;5144530;27;20035;-77
2022/11/24 09:54:17;;;;;;;8.80;2.67;;;7.70;99.90;;;;;;5130274;27;20520;-75
2022/11/24 09:56:44;;;;;;;11.27;2.80;;;7.70;99.90;;;;;;5112527;27;20092;-75
2022/11/24 09:59:18;;;;;;;11.30;2.50;;;7.70;99.90;;;;;;5123298;27;20077;-76
2022/11/24 10:01:45;;;;;;;;;;;7.80;99.90;;;;;;5105583;27;20043;-75
2022/11/24 10:04:37;;;;;;;10.73;2.50;;;7.80;99.90;;;;;;5121139;27;20469;-73
2022/11/24 10:07:10;;;;;;;6.82;2.10;;;7.90;99.90;;;;;;5106074;27;20524;-75
2022/11/24 10:09:44;;;;;;;7.95;1.85;;;7.90;99.90;;;;;;5139019;27;20419;-75
2022/11/24 10:12:42;;;;;;;6.20;1.17;;;8.00;99.90;;;;;;5118928;27;20047;-75
2022/11/24 10:15:58;;;;;;;9.90;2.15;;;8.10;99.90;;;;;;5066198;27;20063;-75
2022/11/24 10:18:49;;;;;;;7.20;1.85;;;8.10;99.90;;;;;;5070078;27;20395;-74
2022/11/24 10:21:23;;;;;;;8.48;2.78;;;8.20;99.90;;;;;;5128834;27;20398;-73
2022/11/24 10:24:17;;;;;;;7.40;2.22;;;8.20;99.90;;;;;;5107152;27;20142;-73
2022/11/24 10:26:59;;;;;;;5.13;1.90;;;8.20;99.90;;;;;;5142495;27;20118;-72
2022/11/24 10:29:39;;;;;;;4.53;1.58;;;8.20;99.90;;;;;;5119076;27;20046;-74
2022/11/24 10:32:13;;;;;;;5.47;1.60;;;8.20;99.90;;;;;;5145624;27;20047;-73
2022/11/24 10:34:43;;;;;;;6.70;2.05;;;8.20;99.90;;;;;;5121186;27;20106;-74
2022/11/24 10:37:18;;;;;;;5.00;1.67;;;8.20;99.90;;;;;;5126197;27;20070;-75
2022/11/24 10:39:59;;;;;;;5.30;1.77;;;8.20;99.90;;;;;;5140470;27;20058;-75
2022/11/24 10:42:30;;;;;;;4.80;1.40;;;8.20;99.90;;;;;;5148605;27;20078;-75
2022/11/24 10:45:01;;;;;;;7.32;2.22;;;8.10;99.90;;;;;;5121581;27;20085;-75
2022/11/24 10:47:28;;;;;;;8.43;2.55;;;8.20;99.90;;;;;;5125455;27;20364;-77
2022/11/24 10:50:03;;;;;;;6.65;2.10;;;8.20;99.90;;;;;;5111859;27;20084;-74
2022/11/24 10:52:35;;;;;;;8.02;2.55;;;8.20;99.90;;;;;;5125561;27;20050;-77
2022/11/24 10:55:03;;;;;;;5.70;2.00;;;8.30;99.90;;;;;;5143726;27;20102;-75
2022/11/24 10:57:35;;;;;;;8.98;1.90;;;8.40;99.90;;;;;;5101023;27;20078;-76
2022/11/24 11:00:23;;;;;;;5.95;2.40;;;8.60;99.90;;;;;;5126963;27;20469;-72
2022/11/24 11:03:08;;;;;;;4.70;1.77;;;8.50;99.90;;;;;;5140161;27;20043;-76
2022/11/24 11:05:46;;;;;;;5.75;1.70;;;8.50;99.90;;;;;;5146950;27;20414;-76
2022/11/24 11:08:27;;;;;;;9.90;2.13;;;8.60;99.90;;;;;;5121633;27;20039;-76
2022/11/24 11:11:26;;;;;;;7.75;1.83;;;8.60;99.90;;;;;;5142997;27;20068;-76
2022/11/24 11:13:57;;;;;;;8.55;2.50;;;8.70;99.90;;;;;;5129055;27;20040;-76
2022/11/24 11:16:28;;;;;;;5.72;2.00;;;8.70;99.90;;;;;;5105200;27;20046;-74
2022/11/24 11:18:53;;;;;;;11.82;2.42;;;8.60;99.90;;;;;;5106395;27;20461;-75
2022/11/24 11:21:37;;;;;;;5.95;1.90;;;9.80;99.90;;;;;;5122712;27;20119;-76
2022/11/24 11:24:22;;;;;;;12.65;2.10;;;8.90;99.90;;;;;;5124500;27;20051;-74
2022/11/24 11:27:02;;;;;;;10.48;2.08;;;8.90;99.90;;;;;;5141791;27;20051;-75
2022/11/24 11:29:28;;;;;;;11.13;2.83;;;9.00;99.90;;;;;;5113581;27;20035;-74
2022/11/24 11:32:26;;;;;;;11.23;2.38;;;9.10;99.90;;;;;;5137623;27;20038;-73
2022/11/24 11:34:54;;;;;;;10.95;3.00;;;9.10;99.90;;;;;;5126494;27;20075;-75
2022/11/24 11:37:26;;;;;;;7.22;2.45;;;9.20;99.90;;;;;;5118150;27;20095;-74
2022/11/24 11:39:53;;;;;;;11.80;3.50;;;9.10;99.90;;;;;;5106285;27;20498;-73
2022/11/24 11:42:31;;;;;;;10.10;3.25;;;9.60;99.90;;;;;;5121693;27;20043;-73
2022/11/24 11:45:19;;;;;;;11.85;2.97;;;9.20;99.90;;;;;;5143232;27;20050;-74
2022/11/24 11:47:56;;;;;;;9.48;2.40;;;9.20;99.90;;;;;;5125226;27;20053;-75
2022/11/24 11:50:30;;;;;;;10.30;3.10;;;9.30;99.90;;;;;;5110731;27;20121;-75
2022/11/24 11:53:31;;;;;;;9.93;2.78;;;9.40;99.90;;;;;;5146856;27;20073;-74
2022/11/24 11:56:25;;;;;;;15.35;3.05;;;10.70;99.90;;;;;;5128514;27;20043;-75
2022/11/24 11:59:27;;;;;;;6.70;2.42;;;9.40;99.90;;;;;;5147243;27;20500;-74
2022/11/24 12:02:08;;;;;;;11.68;2.63;;;9.50;99.90;;;;;;5125267;27;20542;-75
2022/11/24 12:04:45;;;;;;;9.65;2.25;;;9.50;99.90;;;;;;5128987;27;20046;-75
2022/11/24 12:07:48;;;;;;;12.20;3.08;;;9.60;99.90;;;;;;5129215;27;20115;-72
2022/11/24 12:10:22;;;;;;;14.65;2.97;;;9.60;99.90;;;;;;5111201;27;20035;-72
2022/11/24 12:13:06;;;;;;;10.77;2.13;;;9.60;99.90;;;;;;5127817;27;20055;-70
2022/11/24 12:15:53;;;;;;;13.55;2.17;;;10.10;99.90;;;;;;5129109;27;20548;-70
2022/11/24 12:18:26;;;;;;;12.38;2.35;;;9.80;99.90;;;;;;5146147;27;20041;-71
2022/11/24 12:20:58;;;;;;;9.05;2.22;;;9.70;99.90;;;;;;5147107;27;20042;-71
2022/11/24 12:24:05;;;;;;;10.27;2.67;;;9.70;99.90;;;;;;5127294;27;20062;-70
2022/11/24 12:26:49;;;;;;;11.07;2.70;;;9.70;99.90;;;;;;5095034;27;20055;-72
2022/11/24 12:29:45;;;;;;;18.50;2.90;;;9.70;99.90;;;;;;5147521;27;20428;-70
2022/11/24 12:32:25;;;;;;;10.45;2.88;;;9.70;99.90;;;;;;5125975;27;20148;-70
2022/11/24 12:34:54;;;;;;;16.40;3.22;;;9.30;99.90;;;;;;5128406;27;20042;-70
2022/11/24 12:37:20;;;;;;;8.05;2.42;;;9.70;99.90;;;;;;5146936;27;20049;-70
2022/11/24 12:40:03;;;;;;;10.43;2.50;;;9.90;99.90;;;;;;5112316;27;20047;-70
2022/11/24 12:42:47;;;;;;;10.55;2.67;;;9.80;99.90;;;;;;5112422;27;20492;-70
2022/11/24 12:45:21;;;;;;;11.55;2.13;;;9.70;99.90;;;;;;5146327;27;20511;-70
2022/11/24 12:48:08;;;;;;;14.75;2.75;;;9.80;99.90;;;;;;5109176;27;20167;-74
2022/11/24 12:50:39;;;;;;;9.32;4.30;;;9.80;99.90;;;;;;5118994;27;20062;-71
2022/11/24 12:53:15;;;;;;;13.88;4.13;;;10.00;99.90;;;;;;5126898;27;20388;-70
2022/11/24 12:55:43;;;;;;;14.35;3.72;;;9.80;99.90;;;;;;5128041;27;20066;-71
2022/11/24 12:58:28;;;;;;;13.07;2.10;;;9.80;99.90;;;;;;5112147;27;20043;-72
2022/11/24 13:01:09;;;;;;;11.95;2.80;;;9.80;99.90;;;;;;5134851;27;20056;-71
2022/11/24 13:03:57;;;;;;;12.32;3.72;;;9.80;99.90;;;;;;5134058;27;20047;-71